N9497M KLAL-KMLB
Flight info
| Callsign | N9497M |
|---|---|
| Flight time | 0h 32m |
| Altitude | 5000 |
| Route | LAL YOJIX T336 DEARY |
| Aircraft | C210/L-SBDGR/C |
Departure
| Time | 2026-04-22 01:04 |
|---|---|
| Airport | Lakeland Linder International Airport (KLAL) |
Arrival
| Time | 2026-04-22 01:37 |
|---|---|
| Airport | Melbourne Orlando International Airport (KMLB) |
| Time | Latitude | Longitude | Altitude | Speed | Heading |
|---|---|---|---|---|---|
| 2026-04-22 00:43 | 27.99236 | -82.01559 | 139 ft | 0 kts | 328° |
| 2026-04-22 00:52 | 27.99237 | -82.01559 | 139 ft | 0 kts | 328° |
| 2026-04-22 00:52 | 27.99216 | -82.01569 | 139 ft | 5 kts | 147° |
| 2026-04-22 00:52 | 27.99191 | -82.01556 | 140 ft | 3 kts | 169° |
| 2026-04-22 00:53 | 27.99149 | -82.01541 | 139 ft | 9 kts | 160° |
| 2026-04-22 00:53 | 27.99088 | -82.01520 | 139 ft | 10 kts | 175° |
| 2026-04-22 00:53 | 27.99072 | -82.01518 | 138 ft | 0 kts | 173° |
| 2026-04-22 00:55 | 27.99071 | -82.01518 | 138 ft | 1 kts | 173° |
| 2026-04-22 00:55 | 27.99042 | -82.01496 | 139 ft | 11 kts | 96° |
| 2026-04-22 00:55 | 27.98941 | -82.01535 | 139 ft | 29 kts | 222° |
| 2026-04-22 00:56 | 27.98792 | -82.01711 | 143 ft | 28 kts | 220° |
| 2026-04-22 00:56 | 27.98730 | -82.01790 | 143 ft | 6 kts | 266° |
| 2026-04-22 00:56 | 27.98730 | -82.01910 | 142 ft | 23 kts | 270° |
| 2026-04-22 00:56 | 27.98730 | -82.02119 | 141 ft | 31 kts | 270° |
| 2026-04-22 00:57 | 27.98734 | -82.02296 | 135 ft | 3 kts | 355° |
| 2026-04-22 00:57 | 27.98801 | -82.02312 | 135 ft | 18 kts | 338° |
| 2026-04-22 00:57 | 27.98815 | -82.02455 | 135 ft | 29 kts | 271° |
| 2026-04-22 00:57 | 27.98814 | -82.02733 | 133 ft | 36 kts | 269° |
| 2026-04-22 00:58 | 27.98813 | -82.02987 | 135 ft | 28 kts | 268° |
| 2026-04-22 00:58 | 27.98809 | -82.03182 | 136 ft | 23 kts | 256° |
| 2026-04-22 00:58 | 27.98810 | -82.03302 | 136 ft | 0 kts | 301° |
| 2026-04-22 00:59 | 27.98812 | -82.03324 | 136 ft | 7 kts | 284° |
| 2026-04-22 00:59 | 27.98837 | -82.03367 | 136 ft | 5 kts | 351° |
| 2026-04-22 00:59 | 27.98839 | -82.03367 | 136 ft | 0 kts | 354° |
| 2026-04-22 01:02 | 27.98849 | -82.03369 | 136 ft | 10 kts | 352° |
| 2026-04-22 01:02 | 27.98926 | -82.03337 | 136 ft | 3 kts | 103° |
| 2026-04-22 01:03 | 27.98925 | -82.03312 | 136 ft | 19 kts | 91° |
| 2026-04-22 01:03 | 27.98925 | -82.02914 | 145 ft | 75 kts | 89° |
| 2026-04-22 01:04 | 27.98912 | -82.02294 | 364 ft | 87 kts | 91° |
| 2026-04-22 01:04 | 27.98886 | -82.01510 | 594 ft | 107 kts | 91° |
| 2026-04-22 01:04 | 27.98897 | -82.00663 | 964 ft | 113 kts | 89° |
| 2026-04-22 01:04 | 27.98913 | -81.99716 | 1262 ft | 124 kts | 89° |
| 2026-04-22 01:05 | 27.98901 | -81.98739 | 1672 ft | 125 kts | 90° |
| 2026-04-22 01:05 | 27.98907 | -81.97754 | 2073 ft | 126 kts | 89° |
| 2026-04-22 01:05 | 27.98917 | -81.96776 | 2453 ft | 123 kts | 89° |
| 2026-04-22 01:05 | 27.98924 | -81.95764 | 2575 ft | 140 kts | 89° |
| 2026-04-22 01:06 | 27.98934 | -81.94599 | 2590 ft | 155 kts | 89° |
| 2026-04-22 01:06 | 27.98944 | -81.93339 | 2589 ft | 164 kts | 89° |
| 2026-04-22 01:06 | 27.98955 | -81.92029 | 2590 ft | 168 kts | 89° |
| 2026-04-22 01:06 | 27.98968 | -81.90711 | 2587 ft | 171 kts | 89° |
| 2026-04-22 01:07 | 27.98980 | -81.89365 | 2587 ft | 172 kts | 89° |
| 2026-04-22 01:07 | 27.98994 | -81.88012 | 2588 ft | 172 kts | 89° |
| 2026-04-22 01:07 | 27.99007 | -81.86674 | 2582 ft | 169 kts | 89° |
| 2026-04-22 01:07 | 27.99020 | -81.85350 | 2584 ft | 168 kts | 89° |
| 2026-04-22 01:08 | 27.99038 | -81.84035 | 2580 ft | 166 kts | 87° |
| 2026-04-22 01:08 | 27.99451 | -81.82838 | 2567 ft | 166 kts | 50° |
| 2026-04-22 01:08 | 28.00306 | -81.81986 | 2569 ft | 163 kts | 40° |
| 2026-04-22 01:08 | 28.01008 | -81.80981 | 2569 ft | 164 kts | 58° |
| 2026-04-22 01:09 | 28.01564 | -81.79863 | 2571 ft | 165 kts | 61° |
| 2026-04-22 01:09 | 28.02111 | -81.78733 | 2573 ft | 166 kts | 60° |
| 2026-04-22 01:09 | 28.02669 | -81.77590 | 2575 ft | 166 kts | 60° |
| 2026-04-22 01:09 | 28.03228 | -81.76446 | 2574 ft | 166 kts | 60° |
| 2026-04-22 01:10 | 28.03734 | -81.75410 | 2576 ft | 166 kts | 60° |
| 2026-04-22 01:10 | 28.04294 | -81.74264 | 2574 ft | 166 kts | 60° |
| 2026-04-22 01:10 | 28.04854 | -81.73117 | 2576 ft | 166 kts | 60° |
| 2026-04-22 01:10 | 28.05414 | -81.71971 | 2575 ft | 166 kts | 60° |
| 2026-04-22 01:11 | 28.05973 | -81.70824 | 2577 ft | 166 kts | 60° |
| 2026-04-22 01:11 | 28.06534 | -81.69677 | 2577 ft | 166 kts | 60° |
| 2026-04-22 01:11 | 28.07093 | -81.68529 | 2579 ft | 167 kts | 60° |
| 2026-04-22 01:11 | 28.07652 | -81.67383 | 2576 ft | 167 kts | 60° |
| 2026-04-22 01:12 | 28.08213 | -81.66234 | 2576 ft | 166 kts | 60° |
| 2026-04-22 01:12 | 28.08772 | -81.65086 | 2577 ft | 166 kts | 60° |
| 2026-04-22 01:12 | 28.09331 | -81.63940 | 2575 ft | 167 kts | 60° |
| 2026-04-22 01:12 | 28.09883 | -81.62806 | 2576 ft | 167 kts | 60° |
| 2026-04-22 01:13 | 28.10443 | -81.61656 | 2576 ft | 167 kts | 60° |
| 2026-04-22 01:13 | 28.11001 | -81.60509 | 2574 ft | 166 kts | 60° |
| 2026-04-22 01:13 | 28.11560 | -81.59362 | 2577 ft | 167 kts | 60° |
| 2026-04-22 01:13 | 28.12131 | -81.58189 | 2455 ft | 172 kts | 60° |
| 2026-04-22 01:14 | 28.12713 | -81.56992 | 2334 ft | 174 kts | 60° |
| 2026-04-22 01:14 | 28.13298 | -81.55789 | 2269 ft | 172 kts | 60° |
| 2026-04-22 01:14 | 28.13869 | -81.54614 | 2267 ft | 169 kts | 60° |
| 2026-04-22 01:14 | 28.14433 | -81.53454 | 2263 ft | 167 kts | 60° |
| 2026-04-22 01:15 | 28.14993 | -81.52302 | 2261 ft | 167 kts | 61° |
| 2026-04-22 01:15 | 28.15552 | -81.51152 | 2259 ft | 166 kts | 60° |
| 2026-04-22 01:15 | 28.16107 | -81.50008 | 2335 ft | 160 kts | 61° |
| 2026-04-22 01:15 | 28.16608 | -81.48972 | 2687 ft | 144 kts | 60° |
| 2026-04-22 01:16 | 28.17100 | -81.48005 | 2955 ft | 138 kts | 58° |
| 2026-04-22 01:16 | 28.17609 | -81.47083 | 3169 ft | 139 kts | 57° |
| 2026-04-22 01:16 | 28.18156 | -81.46135 | 3199 ft | 152 kts | 57° |
| 2026-04-22 01:16 | 28.18767 | -81.45115 | 3226 ft | 154 kts | 53° |
| 2026-04-22 01:17 | 28.19366 | -81.44095 | 3221 ft | 161 kts | 59° |
| 2026-04-22 01:17 | 28.19910 | -81.42976 | 3317 ft | 155 kts | 63° |
| 2026-04-22 01:17 | 28.20375 | -81.41922 | 3532 ft | 149 kts | 65° |
| 2026-04-22 01:17 | 28.20848 | -81.40864 | 3510 ft | 159 kts | 61° |
| 2026-04-22 01:18 | 28.21397 | -81.39713 | 3362 ft | 170 kts | 61° |
| 2026-04-22 01:18 | 28.21947 | -81.38531 | 3273 ft | 172 kts | 62° |
| 2026-04-22 01:18 | 28.22480 | -81.37311 | 3270 ft | 169 kts | 63° |
| 2026-04-22 01:18 | 28.23019 | -81.36123 | 3251 ft | 169 kts | 60° |
| 2026-04-22 01:19 | 28.23598 | -81.34988 | 3242 ft | 168 kts | 59° |
| 2026-04-22 01:19 | 28.24183 | -81.33835 | 3206 ft | 169 kts | 60° |
| 2026-04-22 01:19 | 28.24755 | -81.32671 | 3201 ft | 168 kts | 61° |
| 2026-04-22 01:19 | 28.25267 | -81.31485 | 3180 ft | 167 kts | 63° |
| 2026-04-22 01:20 | 28.25777 | -81.30290 | 3128 ft | 170 kts | 64° |
| 2026-04-22 01:20 | 28.26314 | -81.29103 | 3120 ft | 168 kts | 60° |
| 2026-04-22 01:20 | 28.26932 | -81.27992 | 3134 ft | 166 kts | 56° |
| 2026-04-22 01:20 | 28.27543 | -81.26880 | 3184 ft | 163 kts | 58° |
| 2026-04-22 01:21 | 28.28136 | -81.25769 | 3168 ft | 165 kts | 59° |
| 2026-04-22 01:21 | 28.28743 | -81.24650 | 3141 ft | 165 kts | 57° |
| 2026-04-22 01:21 | 28.29368 | -81.23559 | 3155 ft | 164 kts | 57° |
| 2026-04-22 01:21 | 28.29988 | -81.22491 | 3306 ft | 157 kts | 53° |
| 2026-04-22 01:22 | 28.30653 | -81.21490 | 3195 ft | 169 kts | 54° |
| 2026-04-22 01:22 | 28.31375 | -81.20439 | 2987 ft | 174 kts | 49° |
| 2026-04-22 01:22 | 28.32152 | -81.19321 | 2638 ft | 181 kts | 53° |
| 2026-04-22 01:22 | 28.32872 | -81.18333 | 2946 ft | 153 kts | 47° |
| 2026-04-22 01:23 | 28.33581 | -81.17391 | 2891 ft | 163 kts | 52° |
| 2026-04-22 01:23 | 28.34252 | -81.16372 | 2947 ft | 157 kts | 60° |
| 2026-04-22 01:23 | 28.34536 | -81.15176 | 2978 ft | 160 kts | 88° |
| 2026-04-22 01:23 | 28.34287 | -81.13952 | 2987 ft | 162 kts | 115° |
| 2026-04-22 01:24 | 28.33947 | -81.13199 | 2973 ft | 163 kts | 118° |
| 2026-04-22 01:24 | 28.33401 | -81.12084 | 2987 ft | 163 kts | 121° |
| 2026-04-22 01:24 | 28.32805 | -81.10959 | 2892 ft | 169 kts | 121° |
| 2026-04-22 01:24 | 28.32012 | -81.09441 | 2854 ft | 167 kts | 121° |
| 2026-04-22 01:25 | 28.31391 | -81.08323 | 2804 ft | 169 kts | 123° |
| 2026-04-22 01:25 | 28.30749 | -81.07210 | 2793 ft | 167 kts | 123° |
| 2026-04-22 01:25 | 28.30138 | -81.06095 | 2736 ft | 168 kts | 121° |
| 2026-04-22 01:25 | 28.29732 | -81.05324 | 2704 ft | 168 kts | 121° |
| 2026-04-22 01:26 | 28.29116 | -81.04204 | 2701 ft | 166 kts | 123° |
| 2026-04-22 01:26 | 28.28485 | -81.03105 | 2652 ft | 168 kts | 124° |
| 2026-04-22 01:26 | 28.27804 | -81.02055 | 2686 ft | 164 kts | 127° |
| 2026-04-22 01:26 | 28.27119 | -81.01002 | 2630 ft | 168 kts | 126° |
| 2026-04-22 01:27 | 28.26463 | -80.99936 | 2643 ft | 166 kts | 125° |
| 2026-04-22 01:27 | 28.25816 | -80.98832 | 2619 ft | 167 kts | 123° |
| 2026-04-22 01:27 | 28.25188 | -80.97751 | 2627 ft | 166 kts | 123° |
| 2026-04-22 01:27 | 28.24530 | -80.96687 | 2601 ft | 165 kts | 127° |
| 2026-04-22 01:28 | 28.23831 | -80.95633 | 2546 ft | 168 kts | 127° |
| 2026-04-22 01:28 | 28.23102 | -80.94586 | 2535 ft | 166 kts | 129° |
| 2026-04-22 01:28 | 28.22387 | -80.93557 | 2465 ft | 167 kts | 127° |
| 2026-04-22 01:28 | 28.21675 | -80.92530 | 2479 ft | 165 kts | 130° |
| 2026-04-22 01:29 | 28.20944 | -80.91515 | 2452 ft | 167 kts | 129° |
| 2026-04-22 01:29 | 28.20228 | -80.90496 | 2482 ft | 164 kts | 129° |
| 2026-04-22 01:29 | 28.19498 | -80.89485 | 2453 ft | 166 kts | 130° |
| 2026-04-22 01:29 | 28.18765 | -80.88474 | 2444 ft | 166 kts | 129° |
| 2026-04-22 01:30 | 28.17881 | -80.87688 | 2435 ft | 164 kts | 158° |
| 2026-04-22 01:30 | 28.16776 | -80.87353 | 2365 ft | 166 kts | 169° |
| 2026-04-22 01:30 | 28.15645 | -80.87101 | 2355 ft | 165 kts | 170° |
| 2026-04-22 01:30 | 28.14517 | -80.86892 | 2371 ft | 163 kts | 172° |
| 2026-04-22 01:31 | 28.13395 | -80.86706 | 2346 ft | 165 kts | 172° |
| 2026-04-22 01:31 | 28.12231 | -80.86517 | 2212 ft | 169 kts | 172° |
| 2026-04-22 01:31 | 28.11068 | -80.86269 | 2075 ft | 169 kts | 161° |
| 2026-04-22 01:31 | 28.10195 | -80.85389 | 1852 ft | 175 kts | 123° |
| 2026-04-22 01:32 | 28.10034 | -80.84111 | 1802 ft | 164 kts | 81° |
| 2026-04-22 01:32 | 28.10162 | -80.82852 | 1848 ft | 160 kts | 85° |
| 2026-04-22 01:32 | 28.10196 | -80.81581 | 1850 ft | 161 kts | 89° |
| 2026-04-22 01:32 | 28.10224 | -80.80302 | 1797 ft | 165 kts | 89° |
| 2026-04-22 01:33 | 28.10225 | -80.78990 | 1744 ft | 167 kts | 90° |
| 2026-04-22 01:33 | 28.10218 | -80.77716 | 1661 ft | 159 kts | 91° |
| 2026-04-22 01:33 | 28.10190 | -80.76478 | 1473 ft | 154 kts | 91° |
| 2026-04-22 01:33 | 28.10185 | -80.75309 | 1341 ft | 141 kts | 89° |
| 2026-04-22 01:34 | 28.10209 | -80.74317 | 1158 ft | 115 kts | 86° |
| 2026-04-22 01:34 | 28.10211 | -80.73441 | 1034 ft | 107 kts | 90° |
| 2026-04-22 01:34 | 28.10237 | -80.72585 | 1022 ft | 110 kts | 88° |
| 2026-04-22 01:34 | 28.10278 | -80.71712 | 1034 ft | 112 kts | 84° |
| 2026-04-22 01:35 | 28.10357 | -80.70849 | 947 ft | 106 kts | 87° |
| 2026-04-22 01:35 | 28.10377 | -80.70010 | 766 ft | 106 kts | 89° |
| 2026-04-22 01:35 | 28.10400 | -80.69188 | 626 ft | 103 kts | 88° |
| 2026-04-22 01:35 | 28.10429 | -80.68379 | 487 ft | 102 kts | 86° |
| 2026-04-22 01:36 | 28.10475 | -80.67582 | 343 ft | 99 kts | 86° |
| 2026-04-22 01:36 | 28.10506 | -80.66826 | 224 ft | 92 kts | 87° |
| 2026-04-22 01:36 | 28.10541 | -80.66107 | 88 ft | 91 kts | 86° |
| 2026-04-22 01:36 | 28.10574 | -80.65435 | 38 ft | 76 kts | 84° |
| 2026-04-22 01:37 | 28.10604 | -80.65000 | 37 ft | 31 kts | 81° |
| 2026-04-22 01:37 | 28.10605 | -80.64905 | 36 ft | 2 kts | 91° |
| 2026-04-22 01:37 | 28.10656 | -80.64849 | 36 ft | 13 kts | 350° |
| 2026-04-22 01:37 | 28.10694 | -80.64848 | 36 ft | 0 kts | 155° |
| 2026-04-22 01:38 | 28.10690 | -80.64831 | 36 ft | 9 kts | 87° |
| 2026-04-22 01:38 | 28.10694 | -80.64730 | 33 ft | 18 kts | 81° |
| 2026-04-22 01:39 | 28.10752 | -80.64692 | 32 ft | 9 kts | 349° |
| 2026-04-22 01:39 | 28.10757 | -80.64692 | 32 ft | 0 kts | 10° |